Marian Marie — A471180 — position and weather

sailwx.info

Track history (hours):
 
Tides and Currents Weather Stations Pressure Air Temp Water Temp Dewpoint Dewpoint Depression Visibility Wind Speed Wind Dir Waves Ship Positions

Marian Marie

Last reported at 2018-Feb-24 20:45 UTC. Time now 2018-Feb-25 10:09 UTC.
Position N 34°10' W 119°13'.

Length 12 m.

Type: Pleasure craft. MMSI: 338077538.

Date/timePositionNaut miles runAvg speedWind from/ knotsBaromVisibWave heightAir tempDewpointWater temp
2018-Feb-24 20:45N 34°10' W 119°13'1 2.5
2018-Feb-24 20:30N 34°10' W 119°14'4 8.2
2018-Feb-24 19:59N 34°13' W 119°17'1 1.7
2018-Feb-24 19:30N 34°14' W 119°17'714.2
2018-Feb-24 19:00N 34°08' W 119°13'3 6.8
2018-Feb-24 18:30N 34°04' W 119°12'510.5
2018-Feb-24 18:00N 34°09' W 119°14'  
2018-Feb-16 22:02N 34°10' W 119°13'0 0.2
2018-Feb-16 21:59N 34°10' W 119°13'6 5.6
2018-Feb-16 20:53N 34°13' W 119°20'514.1
2018-Feb-16 20:30N 34°18' W 119°23'7 6.7
2018-Feb-16 19:25N 34°22' W 119°30'0 0.4
2018-Feb-16 19:00N 34°23' W 119°30'712.9
2018-Feb-16 18:26N 34°17' W 119°24'715.1
2018-Feb-16 17:58N 34°12' W 119°18'5 8.9
2018-Feb-16 17:26N 34°10' W 119°13'0 0.0
2018-Feb-16 16:59N 34°10' W 119°13'  
Track history (hours):
 
Tides and Currents Weather Stations Pressure Air Temp Water Temp Dewpoint Dewpoint Depression Visibility Wind Speed Wind Dir Waves Ship Positions

Marian Marie

Last reported at 2018-Feb-24 20:45 UTC. Time now 2018-Feb-25 10:09 UTC.
Position N 34°10' W 119°13'.

Length 12 m.

Type: Pleasure craft. MMSI: 338077538.

Date/timePositionNaut miles runAvg speedWind from/ knotsBaromVisibWave heightAir tempDewpointWater temp
2018-Feb-24 20:45N 34°10' W 119°13'1 2.5
2018-Feb-24 20:30N 34°10' W 119°14'4 8.2
2018-Feb-24 19:59N 34°13' W 119°17'1 1.7
2018-Feb-24 19:30N 34°14' W 119°17'714.2
2018-Feb-24 19:00N 34°08' W 119°13'3 6.8
2018-Feb-24 18:30N 34°04' W 119°12'510.5
2018-Feb-24 18:00N 34°09' W 119°14'  
2018-Feb-16 22:02N 34°10' W 119°13'0 0.2
2018-Feb-16 21:59N 34°10' W 119°13'6 5.6
2018-Feb-16 20:53N 34°13' W 119°20'514.1
2018-Feb-16 20:30N 34°18' W 119°23'7 6.7
2018-Feb-16 19:25N 34°22' W 119°30'0 0.4
2018-Feb-16 19:00N 34°23' W 119°30'712.9
2018-Feb-16 18:26N 34°17' W 119°24'715.1
2018-Feb-16 17:58N 34°12' W 119°18'5 8.9
2018-Feb-16 17:26N 34°10' W 119°13'0 0.0
2018-Feb-16 16:59N 34°10' W 119°13'  

Dump ship's entire track history